SWA1507 KDAL-KMAF
Flight info
| Callsign | SWA1507 |
|---|---|
| Flight time | 0h 59m |
| Altitude | 36000 |
| Route | KKITY5 DOSXX |
| Aircraft | B737/M-SDE2E3FGHIRWXY/LB1 |
Departure
| Time | 2026-04-24 04:42 |
|---|---|
| Airport | Dallas Love Field (KDAL) |
Arrival
| Time | 2026-04-24 05:41 |
|---|---|
| Airport | Midland International Air and Space Port (KMAF) |
| Time | Latitude | Longitude | Altitude | Speed | Heading |
|---|---|---|---|---|---|
| 2026-04-24 04:18 | 32.84643 | -96.84843 | 483 ft | 0 kts | 180° |
| 2026-04-24 04:33 | 32.84655 | -96.84844 | 483 ft | 3 kts | 190° |
| 2026-04-24 04:33 | 32.84674 | -96.84839 | 483 ft | 3 kts | 201° |
| 2026-04-24 04:34 | 32.84694 | -96.84826 | 479 ft | 3 kts | 216° |
| 2026-04-24 04:34 | 32.84701 | -96.84820 | 482 ft | 0 kts | 216° |
| 2026-04-24 04:37 | 32.84701 | -96.84821 | 483 ft | 1 kts | 225° |
| 2026-04-24 04:37 | 32.84706 | -96.84843 | 476 ft | 7 kts | 297° |
| 2026-04-24 04:37 | 32.84739 | -96.84942 | 475 ft | 19 kts | 279° |
| 2026-04-24 04:38 | 32.84742 | -96.85136 | 483 ft | 27 kts | 273° |
| 2026-04-24 04:38 | 32.84770 | -96.85308 | 482 ft | 9 kts | 308° |
| 2026-04-24 04:38 | 32.84789 | -96.85360 | 483 ft | 7 kts | 277° |
| 2026-04-24 04:38 | 32.84782 | -96.85425 | 482 ft | 9 kts | 239° |
| 2026-04-24 04:39 | 32.84716 | -96.85443 | 479 ft | 11 kts | 187° |
| 2026-04-24 04:39 | 32.84627 | -96.85462 | 478 ft | 14 kts | 190° |
| 2026-04-24 04:39 | 32.84604 | -96.85547 | 482 ft | 15 kts | 313° |
| 2026-04-24 04:39 | 32.84689 | -96.85642 | 479 ft | 18 kts | 315° |
| 2026-04-24 04:40 | 32.84780 | -96.85754 | 481 ft | 20 kts | 315° |
| 2026-04-24 04:40 | 32.84889 | -96.85875 | 479 ft | 23 kts | 316° |
| 2026-04-24 04:40 | 32.85005 | -96.86013 | 485 ft | 24 kts | 317° |
| 2026-04-24 04:40 | 32.85131 | -96.86157 | 482 ft | 26 kts | 315° |
| 2026-04-24 04:41 | 32.85180 | -96.86256 | 476 ft | 13 kts | 246° |
| 2026-04-24 04:41 | 32.85105 | -96.86308 | 480 ft | 14 kts | 156° |
| 2026-04-24 04:41 | 32.84969 | -96.86156 | 481 ft | 57 kts | 136° |
| 2026-04-24 04:41 | 32.84518 | -96.85635 | 483 ft | 121 kts | 135° |
| 2026-04-24 04:42 | 32.83807 | -96.84846 | 664 ft | 149 kts | 139° |
| 2026-04-24 04:42 | 32.83058 | -96.83990 | 1285 ft | 149 kts | 138° |
| 2026-04-24 04:42 | 32.82387 | -96.83132 | 2019 ft | 142 kts | 135° |
| 2026-04-24 04:42 | 32.81646 | -96.82169 | 2352 ft | 172 kts | 137° |
| 2026-04-24 04:43 | 32.80770 | -96.81063 | 2853 ft | 194 kts | 139° |
| 2026-04-24 04:43 | 32.79783 | -96.79862 | 3351 ft | 216 kts | 139° |
| 2026-04-24 04:43 | 32.78666 | -96.78478 | 3734 ft | 246 kts | 137° |
| 2026-04-24 04:43 | 32.77491 | -96.76980 | 4683 ft | 248 kts | 137° |
| 2026-04-24 04:44 | 32.76299 | -96.75478 | 5620 ft | 253 kts | 139° |
| 2026-04-24 04:44 | 32.75026 | -96.73926 | 6312 ft | 265 kts | 140° |
| 2026-04-24 04:44 | 32.73708 | -96.72407 | 7378 ft | 267 kts | 142° |
| 2026-04-24 04:44 | 32.72258 | -96.71000 | 8216 ft | 274 kts | 154° |
| 2026-04-24 04:45 | 32.70444 | -96.70382 | 9042 ft | 273 kts | 184° |
| 2026-04-24 04:45 | 32.68624 | -96.70936 | 9996 ft | 273 kts | 207° |
| 2026-04-24 04:45 | 32.66922 | -96.71992 | 10824 ft | 286 kts | 210° |
| 2026-04-24 04:45 | 32.65091 | -96.73169 | 11242 ft | 312 kts | 210° |
| 2026-04-24 04:46 | 32.63220 | -96.74637 | 11575 ft | 334 kts | 224° |
| 2026-04-24 04:46 | 32.61886 | -96.76892 | 12448 ft | 336 kts | 248° |
| 2026-04-24 04:46 | 32.61418 | -96.79563 | 13408 ft | 338 kts | 266° |
| 2026-04-24 04:46 | 32.61371 | -96.82373 | 14325 ft | 343 kts | 270° |
| 2026-04-24 04:47 | 32.61403 | -96.85212 | 15289 ft | 346 kts | 271° |
| 2026-04-24 04:47 | 32.61453 | -96.88083 | 16241 ft | 349 kts | 271° |
| 2026-04-24 04:47 | 32.61498 | -96.90976 | 17159 ft | 352 kts | 271° |
| 2026-04-24 04:47 | 32.61533 | -96.93895 | 18035 ft | 356 kts | 270° |
| 2026-04-24 04:48 | 32.61557 | -96.96853 | 18869 ft | 360 kts | 270° |
| 2026-04-24 04:48 | 32.61574 | -96.99839 | 19670 ft | 365 kts | 270° |
| 2026-04-24 04:48 | 32.61587 | -97.02862 | 20485 ft | 368 kts | 270° |
| 2026-04-24 04:48 | 32.61597 | -97.05919 | 21255 ft | 372 kts | 270° |
| 2026-04-24 04:49 | 32.61605 | -97.09005 | 21979 ft | 376 kts | 270° |
| 2026-04-24 04:49 | 32.61612 | -97.12122 | 22676 ft | 380 kts | 270° |
| 2026-04-24 04:49 | 32.61618 | -97.15276 | 23340 ft | 384 kts | 270° |
| 2026-04-24 04:49 | 32.61623 | -97.18419 | 23983 ft | 388 kts | 270° |
| 2026-04-24 04:50 | 32.61628 | -97.21631 | 24639 ft | 390 kts | 270° |
| 2026-04-24 04:50 | 32.61633 | -97.24860 | 25316 ft | 392 kts | 270° |
| 2026-04-24 04:50 | 32.61637 | -97.28102 | 25972 ft | 393 kts | 271° |
| 2026-04-24 04:50 | 32.61638 | -97.31353 | 26585 ft | 394 kts | 271° |
| 2026-04-24 04:51 | 32.61766 | -97.34596 | 27252 ft | 393 kts | 278° |
| 2026-04-24 04:51 | 32.62214 | -97.37769 | 28152 ft | 386 kts | 280° |
| 2026-04-24 04:51 | 32.62727 | -97.40870 | 29071 ft | 379 kts | 281° |
| 2026-04-24 04:51 | 32.63242 | -97.43915 | 29922 ft | 374 kts | 281° |
| 2026-04-24 04:52 | 32.63737 | -97.46919 | 30777 ft | 368 kts | 281° |
| 2026-04-24 04:52 | 32.64211 | -97.49885 | 31510 ft | 365 kts | 281° |
| 2026-04-24 04:52 | 32.64673 | -97.52847 | 32124 ft | 365 kts | 281° |
| 2026-04-24 04:52 | 32.65127 | -97.55799 | 32720 ft | 363 kts | 281° |
| 2026-04-24 04:53 | 32.65577 | -97.58738 | 33349 ft | 360 kts | 281° |
| 2026-04-24 04:53 | 32.66015 | -97.61616 | 33925 ft | 358 kts | 281° |
| 2026-04-24 04:53 | 32.66456 | -97.64516 | 34459 ft | 356 kts | 281° |
| 2026-04-24 04:53 | 32.66894 | -97.67395 | 35025 ft | 352 kts | 281° |
| 2026-04-24 04:54 | 32.67325 | -97.70234 | 35640 ft | 348 kts | 281° |
| 2026-04-24 04:54 | 32.67717 | -97.73058 | 35743 ft | 342 kts | 276° |
| 2026-04-24 04:54 | 32.67476 | -97.78633 | 35793 ft | 341 kts | 268° |
| 2026-04-24 04:55 | 32.66993 | -97.84328 | 35795 ft | 351 kts | 268° |
| 2026-04-24 04:55 | 32.66518 | -97.90088 | 35789 ft | 350 kts | 268° |
| 2026-04-24 04:56 | 32.66062 | -97.95789 | 35783 ft | 348 kts | 268° |
| 2026-04-24 04:56 | 32.65609 | -98.01516 | 35805 ft | 351 kts | 268° |
| 2026-04-24 04:57 | 32.65379 | -98.04435 | 35927 ft | 359 kts | 268° |
| 2026-04-24 04:57 | 32.65144 | -98.07395 | 36223 ft | 361 kts | 268° |
| 2026-04-24 04:57 | 32.64909 | -98.10349 | 36678 ft | 358 kts | 268° |
| 2026-04-24 04:57 | 32.64673 | -98.13269 | 37199 ft | 353 kts | 268° |
| 2026-04-24 04:58 | 32.64442 | -98.16146 | 37697 ft | 349 kts | 267° |
| 2026-04-24 04:58 | 32.64214 | -98.18970 | 37730 ft | 339 kts | 268° |
| 2026-04-24 04:58 | 32.63769 | -98.24501 | 37781 ft | 338 kts | 268° |
| 2026-04-24 04:59 | 32.63317 | -98.30126 | 37791 ft | 346 kts | 268° |
| 2026-04-24 04:59 | 32.62854 | -98.35822 | 37790 ft | 346 kts | 267° |
| 2026-04-24 05:00 | 32.62388 | -98.41471 | 37796 ft | 347 kts | 267° |
| 2026-04-24 05:00 | 32.61919 | -98.47164 | 37806 ft | 346 kts | 267° |
| 2026-04-24 05:01 | 32.61449 | -98.52849 | 37799 ft | 345 kts | 268° |
| 2026-04-24 05:01 | 32.60977 | -98.58513 | 37800 ft | 345 kts | 267° |
| 2026-04-24 05:02 | 32.60501 | -98.64169 | 37792 ft | 343 kts | 267° |
| 2026-04-24 05:02 | 32.60032 | -98.69778 | 37800 ft | 341 kts | 267° |
| 2026-04-24 05:03 | 32.59562 | -98.75338 | 37794 ft | 341 kts | 267° |
| 2026-04-24 05:03 | 32.59086 | -98.80922 | 37788 ft | 340 kts | 267° |
| 2026-04-24 05:04 | 32.58610 | -98.86496 | 37799 ft | 340 kts | 267° |
| 2026-04-24 05:04 | 32.58129 | -98.92073 | 37794 ft | 340 kts | 267° |
| 2026-04-24 05:05 | 32.57647 | -98.97652 | 37790 ft | 340 kts | 267° |
| 2026-04-24 05:05 | 32.57163 | -99.03241 | 37797 ft | 340 kts | 267° |
| 2026-04-24 05:06 | 32.56677 | -99.08818 | 37793 ft | 340 kts | 267° |
| 2026-04-24 05:06 | 32.56193 | -99.14355 | 37797 ft | 340 kts | 267° |
| 2026-04-24 05:07 | 32.55701 | -99.19939 | 37796 ft | 340 kts | 267° |
| 2026-04-24 05:07 | 32.55206 | -99.25515 | 37791 ft | 339 kts | 267° |
| 2026-04-24 05:08 | 32.54711 | -99.31073 | 37798 ft | 338 kts | 266° |
| 2026-04-24 05:08 | 32.53826 | -99.36550 | 37809 ft | 341 kts | 259° |
| 2026-04-24 05:09 | 32.52472 | -99.41935 | 37796 ft | 341 kts | 258° |
| 2026-04-24 05:09 | 32.51126 | -99.47271 | 37811 ft | 340 kts | 258° |
| 2026-04-24 05:10 | 32.49794 | -99.52643 | 37805 ft | 339 kts | 258° |
| 2026-04-24 05:10 | 32.48477 | -99.58006 | 37808 ft | 339 kts | 259° |
| 2026-04-24 05:11 | 32.47162 | -99.63376 | 37806 ft | 339 kts | 258° |
| 2026-04-24 05:11 | 32.45846 | -99.68749 | 37809 ft | 339 kts | 259° |
| 2026-04-24 05:12 | 32.44752 | -99.73206 | 37800 ft | 339 kts | 259° |
| 2026-04-24 05:12 | 32.43219 | -99.79432 | 37790 ft | 339 kts | 259° |
| 2026-04-24 05:13 | 32.41459 | -99.86579 | 37774 ft | 338 kts | 259° |
| 2026-04-24 05:14 | 32.40139 | -99.91909 | 37772 ft | 337 kts | 259° |
| 2026-04-24 05:14 | 32.38894 | -99.97230 | 37771 ft | 337 kts | 261° |
| 2026-04-24 05:15 | 32.37868 | -100.02620 | 37787 ft | 335 kts | 262° |
| 2026-04-24 05:15 | 32.36866 | -100.08002 | 37791 ft | 334 kts | 262° |
| 2026-04-24 05:16 | 32.35851 | -100.13368 | 37803 ft | 334 kts | 261° |
| 2026-04-24 05:16 | 32.34826 | -100.18732 | 37812 ft | 334 kts | 261° |
| 2026-04-24 05:17 | 32.33795 | -100.24090 | 37826 ft | 334 kts | 261° |
| 2026-04-24 05:17 | 32.32758 | -100.29455 | 37835 ft | 334 kts | 261° |
| 2026-04-24 05:18 | 32.31673 | -100.34798 | 37767 ft | 331 kts | 258° |
| 2026-04-24 05:18 | 32.30985 | -100.37359 | 37143 ft | 325 kts | 257° |
| 2026-04-24 05:18 | 32.30261 | -100.39913 | 36085 ft | 331 kts | 256° |
| 2026-04-24 05:18 | 32.29516 | -100.42509 | 35038 ft | 336 kts | 256° |
| 2026-04-24 05:19 | 32.28759 | -100.45144 | 34047 ft | 340 kts | 255° |
| 2026-04-24 05:19 | 32.28001 | -100.47795 | 33121 ft | 341 kts | 255° |
| 2026-04-24 05:19 | 32.27263 | -100.50379 | 32688 ft | 330 kts | 255° |
| 2026-04-24 05:19 | 32.26538 | -100.52927 | 32232 ft | 323 kts | 255° |
| 2026-04-24 05:20 | 32.25829 | -100.55425 | 31803 ft | 318 kts | 255° |
| 2026-04-24 05:20 | 32.25135 | -100.57881 | 31389 ft | 312 kts | 255° |
| 2026-04-24 05:20 | 32.24453 | -100.60301 | 30980 ft | 309 kts | 255° |
| 2026-04-24 05:20 | 32.23777 | -100.62702 | 30583 ft | 306 kts | 255° |
| 2026-04-24 05:21 | 32.23105 | -100.65087 | 30191 ft | 308 kts | 255° |
| 2026-04-24 05:21 | 32.22417 | -100.67535 | 29810 ft | 321 kts | 255° |
| 2026-04-24 05:21 | 32.21705 | -100.70068 | 29379 ft | 327 kts | 254° |
| 2026-04-24 05:21 | 32.20986 | -100.72609 | 28898 ft | 322 kts | 254° |
| 2026-04-24 05:22 | 32.20281 | -100.75096 | 28444 ft | 317 kts | 254° |
| 2026-04-24 05:22 | 32.19588 | -100.77537 | 27994 ft | 311 kts | 254° |
| 2026-04-24 05:22 | 32.18902 | -100.79948 | 27553 ft | 307 kts | 254° |
| 2026-04-24 05:22 | 32.18230 | -100.82314 | 27126 ft | 302 kts | 253° |
| 2026-04-24 05:23 | 32.17576 | -100.84614 | 26704 ft | 297 kts | 253° |
| 2026-04-24 05:23 | 32.16921 | -100.86919 | 26287 ft | 295 kts | 253° |
| 2026-04-24 05:23 | 32.16268 | -100.89216 | 25875 ft | 296 kts | 253° |
| 2026-04-24 05:23 | 32.15610 | -100.91533 | 25462 ft | 301 kts | 253° |
| 2026-04-24 05:24 | 32.14934 | -100.93915 | 25036 ft | 311 kts | 253° |
| 2026-04-24 05:24 | 32.14238 | -100.96358 | 24558 ft | 315 kts | 253° |
| 2026-04-24 05:24 | 32.13546 | -100.98784 | 24101 ft | 309 kts | 252° |
| 2026-04-24 05:24 | 32.12864 | -101.01166 | 23653 ft | 304 kts | 253° |
| 2026-04-24 05:25 | 32.12195 | -101.03508 | 23212 ft | 299 kts | 253° |
| 2026-04-24 05:25 | 32.11536 | -101.05813 | 22777 ft | 294 kts | 253° |
| 2026-04-24 05:25 | 32.10886 | -101.08081 | 22352 ft | 290 kts | 253° |
| 2026-04-24 05:25 | 32.10246 | -101.10314 | 21928 ft | 285 kts | 253° |
| 2026-04-24 05:26 | 32.09615 | -101.12515 | 21516 ft | 282 kts | 253° |
| 2026-04-24 05:26 | 32.08986 | -101.14710 | 21110 ft | 283 kts | 253° |
| 2026-04-24 05:26 | 32.08352 | -101.16920 | 20698 ft | 287 kts | 253° |
| 2026-04-24 05:26 | 32.07702 | -101.19185 | 20257 ft | 295 kts | 253° |
| 2026-04-24 05:27 | 32.07041 | -101.21486 | 19819 ft | 296 kts | 253° |
| 2026-04-24 05:27 | 32.06394 | -101.23733 | 19376 ft | 291 kts | 253° |
| 2026-04-24 05:27 | 32.05749 | -101.25972 | 18945 ft | 286 kts | 253° |
| 2026-04-24 05:27 | 32.05114 | -101.28173 | 18522 ft | 281 kts | 253° |
| 2026-04-24 05:28 | 32.04489 | -101.30342 | 18099 ft | 277 kts | 253° |
| 2026-04-24 05:28 | 32.03871 | -101.32480 | 17689 ft | 273 kts | 252° |
| 2026-04-24 05:28 | 32.03263 | -101.34585 | 17281 ft | 269 kts | 252° |
| 2026-04-24 05:28 | 32.02666 | -101.36651 | 16979 ft | 263 kts | 252° |
| 2026-04-24 05:29 | 32.02075 | -101.38694 | 16601 ft | 265 kts | 252° |
| 2026-04-24 05:29 | 32.01475 | -101.40769 | 16229 ft | 270 kts | 252° |
| 2026-04-24 05:29 | 32.00858 | -101.42903 | 15822 ft | 279 kts | 252° |
| 2026-04-24 05:29 | 32.00230 | -101.45073 | 15399 ft | 279 kts | 252° |
| 2026-04-24 05:30 | 31.99608 | -101.47218 | 14972 ft | 274 kts | 252° |
| 2026-04-24 05:30 | 31.98996 | -101.49327 | 14558 ft | 270 kts | 252° |
| 2026-04-24 05:30 | 31.98391 | -101.51403 | 14136 ft | 266 kts | 252° |
| 2026-04-24 05:30 | 31.97810 | -101.53443 | 13740 ft | 260 kts | 251° |
| 2026-04-24 05:31 | 31.97245 | -101.55417 | 13362 ft | 255 kts | 252° |
| 2026-04-24 05:31 | 31.96674 | -101.57372 | 12971 ft | 249 kts | 252° |
| 2026-04-24 05:31 | 31.96112 | -101.59303 | 12596 ft | 251 kts | 251° |
| 2026-04-24 05:31 | 31.95534 | -101.61274 | 12221 ft | 258 kts | 250° |
| 2026-04-24 05:32 | 31.94940 | -101.63297 | 11816 ft | 264 kts | 250° |
| 2026-04-24 05:32 | 31.94345 | -101.65329 | 11394 ft | 260 kts | 251° |
| 2026-04-24 05:32 | 31.93758 | -101.67332 | 10974 ft | 256 kts | 251° |
| 2026-04-24 05:32 | 31.93185 | -101.69297 | 10581 ft | 251 kts | 251° |
| 2026-04-24 05:33 | 31.92621 | -101.71229 | 10180 ft | 247 kts | 251° |
| 2026-04-24 05:33 | 31.92073 | -101.73102 | 9999 ft | 237 kts | 251° |
| 2026-04-24 05:33 | 31.91526 | -101.74967 | 9649 ft | 243 kts | 251° |
| 2026-04-24 05:34 | 31.90392 | -101.78829 | 8829 ft | 257 kts | 251° |
| 2026-04-24 05:34 | 31.89813 | -101.80807 | 8435 ft | 253 kts | 251° |
| 2026-04-24 05:34 | 31.89243 | -101.82744 | 8031 ft | 248 kts | 251° |
| 2026-04-24 05:34 | 31.88687 | -101.84634 | 7656 ft | 242 kts | 251° |
| 2026-04-24 05:35 | 31.88146 | -101.86481 | 7345 ft | 235 kts | 252° |
| 2026-04-24 05:35 | 31.87629 | -101.88247 | 7199 ft | 223 kts | 251° |
| 2026-04-24 05:35 | 31.87135 | -101.89921 | 7087 ft | 211 kts | 251° |
| 2026-04-24 05:35 | 31.86671 | -101.91499 | 6991 ft | 198 kts | 252° |
| 2026-04-24 05:36 | 31.86226 | -101.93007 | 6930 ft | 194 kts | 252° |
| 2026-04-24 05:36 | 31.85782 | -101.94519 | 6872 ft | 198 kts | 251° |
| 2026-04-24 05:36 | 31.85531 | -101.96102 | 6749 ft | 198 kts | 277° |
| 2026-04-24 05:36 | 31.85944 | -101.97601 | 6672 ft | 188 kts | 284° |
| 2026-04-24 05:37 | 31.86391 | -101.99049 | 6463 ft | 188 kts | 287° |
| 2026-04-24 05:37 | 31.86902 | -102.00476 | 6305 ft | 190 kts | 289° |
| 2026-04-24 05:37 | 31.87433 | -102.01910 | 6050 ft | 191 kts | 289° |
| 2026-04-24 05:37 | 31.87953 | -102.03307 | 5792 ft | 181 kts | 289° |
| 2026-04-24 05:38 | 31.88448 | -102.04634 | 5533 ft | 173 kts | 289° |
| 2026-04-24 05:38 | 31.88912 | -102.05894 | 5337 ft | 169 kts | 289° |
| 2026-04-24 05:38 | 31.89382 | -102.07165 | 5118 ft | 170 kts | 289° |
| 2026-04-24 05:38 | 31.89859 | -102.08449 | 4883 ft | 171 kts | 289° |
| 2026-04-24 05:39 | 31.90334 | -102.09732 | 4667 ft | 170 kts | 290° |
| 2026-04-24 05:39 | 31.90792 | -102.10966 | 4420 ft | 158 kts | 290° |
| 2026-04-24 05:39 | 31.91223 | -102.12129 | 4223 ft | 154 kts | 290° |
| 2026-04-24 05:39 | 31.91649 | -102.13280 | 4038 ft | 151 kts | 291° |
| 2026-04-24 05:40 | 31.92056 | -102.14375 | 3835 ft | 141 kts | 290° |
| 2026-04-24 05:40 | 31.92434 | -102.15391 | 3633 ft | 131 kts | 291° |
| 2026-04-24 05:40 | 31.92800 | -102.16378 | 3486 ft | 133 kts | 291° |
| 2026-04-24 05:40 | 31.93175 | -102.17387 | 3296 ft | 135 kts | 291° |
| 2026-04-24 05:41 | 31.93556 | -102.18378 | 3130 ft | 134 kts | 292° |
| 2026-04-24 05:41 | 31.93929 | -102.19396 | 2911 ft | 135 kts | 291° |
| 2026-04-24 05:41 | 31.94269 | -102.20318 | 2871 ft | 98 kts | 294° |
| 2026-04-24 05:41 | 31.94461 | -102.20813 | 2869 ft | 31 kts | 294° |
| 2026-04-24 05:42 | 31.94460 | -102.20965 | 2870 ft | 17 kts | 207° |
| 2026-04-24 05:42 | 31.94377 | -102.20955 | 2869 ft | 12 kts | 126° |
| 2026-04-24 05:42 | 31.94339 | -102.20865 | 2869 ft | 12 kts | 114° |
| 2026-04-24 05:42 | 31.94306 | -102.20776 | 2868 ft | 12 kts | 113° |
| 2026-04-24 05:43 | 31.94274 | -102.20687 | 2866 ft | 12 kts | 113° |
| 2026-04-24 05:43 | 31.94229 | -102.20596 | 2867 ft | 13 kts | 141° |
| 2026-04-24 05:43 | 31.94139 | -102.20575 | 2868 ft | 14 kts | 176° |
| 2026-04-24 05:43 | 31.94035 | -102.20562 | 2868 ft | 16 kts | 176° |
| 2026-04-24 05:44 | 31.93915 | -102.20546 | 2868 ft | 19 kts | 174° |
| 2026-04-24 05:44 | 31.93782 | -102.20534 | 2868 ft | 19 kts | 176° |
| 2026-04-24 05:44 | 31.93664 | -102.20568 | 2868 ft | 18 kts | 237° |
| 2026-04-24 05:44 | 31.93665 | -102.20663 | 2868 ft | 6 kts | 270° |
| 2026-04-24 05:45 | 31.93664 | -102.20691 | 2868 ft | 0 kts | 265° |